PIA weather

General Wayne A. Downing Peoria International Airport
Peoria, Illinois, United States

Public forecast

Using degrees Fahrenheit for public forecast. Weather courtesy of forecast.io.

Current aviation weather report (METAR) for General Wayne A. Downing Peoria International Airport

Retrieved 2019/10/23 08:54 UTC (33 minutes ago):

KPIA 230854Z 00000KT 10SM CLR 03/M01 A2992 RMK AO2 SLP133 T00281006 51003

Aviation forecast (TAF) for General Wayne A. Downing Peoria International Airport

Retrieved 2019/10/23 06:28 UTC (3 hours ago):

TAF KPIA 230525Z 2306/2406 23007KT P6SM SKC FM231400 19009KT P6SM BKN120 FM231700 19012G22KT P6SM BKN120 FM240000 23010KT P6SM BKN120